1981 Tropical Cyclone AMELIA (1981335S16139)


IBTrACS version v04r00. Visit IBTrACS website for data access.
Please direct all questions to the IBTrACS Q and A forum

Storm track - Intensity - Wind Radii - Intensity Data - Source Data - All data

Summary Information

Satellite image near maximum intensity
Storm ID 1981335S16139
Start Nov 30 23Z
Landfall Dec 1 20Z, Dec 3 02Z
Max Intensity 45 kt (Dec 5 00Z), 996 mb (Dec 4 05Z)
End Dec 7 00Z
ATCF IDs ,SH041982
Track status Best track data.

Storm track plot

Map of storm track

Intensity plots

Map of storm track

Radial wind information

No radial wind information for this storm


Position and Intensity Table

BASIN ISO_TIME_________ NATURE LAT LON WMO WIND WMO PRES USA WIND BOM WIND BOM PRES TD9636 WIND NEUMANN WIND NEUMANN PRES
degrees north degrees east kts mb kts kts mb kts kts mb
SP 1981-11-30 23:00:00 NR -16.00 139.00 25 1004 25 1004
SP 1981-12-01 00:00:00 TS -15.86 138.88 25 1003 20 1004
SP 02:00:00 TS -15.49 138.60 25 1003 25 1003 21 1003
SP 03:00:00 TS -15.34 138.50 25 1002 22 1003
SP 05:00:00 TS -15.07 138.28 25 1002 25 1002 24 1002
SP 06:00:00 TS -14.93 138.13 25 1001 25 1002
SP 08:00:00 TS -14.69 137.78 25 1000 25 1000 25 1002
SP 09:00:00 TS -14.62 137.59 25 1000 25 1002
SP 11:00:00 TS -14.53 137.20 25 1002 25 1002 25 1002
SP 12:00:00 TS -14.49 136.99 25 1002 25 1002
SP 15:00:00 TS -14.40 136.37 25 1002 25 1002
SP 17:00:00 TS -14.32 136.06 25 1002 25 1002 25 1002
SP 18:00:00 TS -14.26 135.97 25 1002 25 1002
SP 20:00:00 TS -14.10 135.89 25 1002 25 1002 26 1002
SP 21:00:00 TS -14.03 135.88 25 1002 27 1002
SP 23:00:00 TS -13.88 135.85 25 1002 25 1002 29 1002
SP 1981-12-02 00:00:00 TS -13.77 135.81 25 1002 30 1002
SP 02:00:00 TS -13.56 135.69 25 1002 25 1002 30 1002
SP 03:00:00 TS -13.49 135.65 25 1001 30 1002
SP 05:00:00 TS -13.34 135.57 25 1000 25 1000 30 1002
SP 06:00:00 TS -13.24 135.56 25 1000 30 1002
SP 08:00:00 TS -12.99 135.48 25 1000 25 1000 30 1001
SP 09:00:00 TS -12.84 135.38 25 1000 30 1001
SP 11:00:00 TS -12.53 135.10 25 1000 25 1000 30 1000
SI 12:00:00 TS -12.39 134.95 25 1000 30 1000
SI 15:00:00 TS -12.05 134.52 25 1000 30 1000
SI 17:00:00 TS -11.86 134.26 25 1000 25 1000 30 1000
SI 18:00:00 TS -11.79 134.17 25 1000 30 1000
SI 20:00:00 TS -11.66 133.90 25 1000 25 1000 30 1000
SI 21:00:00 TS -11.57 133.70 25 999 30 1000
SI 23:00:00 TS -11.42 133.28 25 999 25 999 30 1000
SI 1981-12-03 00:00:00 TS -11.40 133.12 25 999 30 1000
SI 02:00:00 TS -11.43 132.94 25 1000 25 1000 30 1000
SI 03:00:00 TS -11.45 132.89 25 1000 30 1000
SI 05:00:00 TS -11.51 132.73 25 1000 25 1000 30 1000
SI 06:00:00 TS -11.56 132.58 25 1000 30 1000
SI 08:00:00 TS -11.72 132.24 25 1000 25 1000
SI 09:00:00 NR -11.88 131.71 25 1000
SI 11:00:00 NR -12.00 131.00 25 1000 25 1000
SI 12:00:00 NR -12.04 130.79 25 1000
SI 15:00:00 NR -12.02 130.45 25 1000
SI 17:00:00 NR -11.90 130.20 25 1000 25 1000
SI 18:00:00 NR -11.81 129.99 25 999
SI 20:00:00 NR -11.60 129.50 25 999 25 999
SI 21:00:00 NR -11.48 129.21 26 998
SI 23:00:00 NR -11.30 128.70 30 998 30 998
SI 1981-12-04 00:00:00 NR -11.28 128.56 30 998
SI 02:00:00 NR -11.30 128.40 30 998 30 998
SI 03:00:00 NR -11.29 128.33 30 997
SI 05:00:00 NR -11.30 128.20 30 996 30 996
SI 06:00:00 NR -11.33 128.11 30 996
SI 08:00:00 NR -11.40 127.90 30 996 30 996
SI 09:00:00 NR -11.43 127.77 30 996
SI 11:00:00 NR -11.50 127.50 30 996 30 996
SI 12:00:00 NR -11.55 127.38 30 996
SI 15:00:00 NR -11.73 127.09 30 996
SI 17:00:00 NR -11.90 126.90 30 996 30 996
SI 18:00:00 NR -12.01 126.80 31 996
SI 20:00:00 NR -12.20 126.60 35 996 35 996
SI 21:00:00 NR -12.24 126.51 35 996
SI 23:00:00 NR -12.30 126.30 35 997 35 997
SI 1981-12-05 00:00:00 NR -12.21 125.78 45 35 997
SI 02:00:00 NR -12.50 125.90 35 998 35 998
SI 03:00:00 NR -12.53 125.81 35 998
SI 05:00:00 NR -12.60 125.60 35 998 35 998
SI 06:00:00 NR -12.68 125.42 33 998
SI 08:00:00 NR -12.90 125.00 30 998 30 998
SI 09:00:00 NR -13.00 124.82 30 998
SI 11:00:00 NR -13.20 124.50 30 1000 30 1000
SI 12:00:00 NR -13.30 124.32 30 1000
SI 15:00:00 NR -13.56 123.80 30 1001
SI 17:00:00 NR -13.70 123.50 30 1002 30 1002
SI 18:00:00 NR -13.74 123.41 30 1002
SI 21:00:00 NR -13.69 122.85 30 1002
SI 23:00:00 NR -13.85 122.53 30 1003 30 1003
SI 1981-12-06 00:00:00 NR -13.99 122.32 30 1003
SI 02:00:00 NR -14.34 121.91 30 1003 30 1003
SI 03:00:00 NR -14.55 121.71 28 1003
SI 05:00:00 NR -15.01 121.32 25 1003 25 1003
SI 06:00:00 NR -15.34 121.11
SI 09:00:00 NR -16.02 120.55
SI 12:00:00 NR -16.60 120.00 45
SI 15:00:00 NR -17.01 119.47 42
SI 18:00:00 NR -17.27 118.97 40
SI 21:00:00 NR -17.41 118.48 37
SI 1981-12-07 00:00:00 NR -17.50 118.00 35

Source Information

Agency Information
USA bsh041982.txt
TOKYO
CMA
HKO
NEWDELHI
REUNION
BOM IDCKMSTM0S.csv:Line=12902:AMELIA
NADI
WELLINGTON
DS824
TD9636 cons_worldwide_trop_cyclone_18710101-19891231-006:Line=11344
TD9635
NEUMANN tracks.sh:Storm=625:AMELIA:BSH0482:BM528
MLC

All available IBTrACS Data

SEASON BASIN SUBBASIN ISO_TIME_________ NATURE LAT LON WMO WIND WMO PRES WMO AGENCY DIST2LAND LANDFALL IFLAG USA AGENCY USA ATCF_ID USA LAT USA LON USA WIND USA SSHS BOM LAT BOM LON BOM TYPE BOM WIND BOM PRES BOM CI BOM POCI TD9636 LAT TD9636 LON TD9636 STAGE TD9636 WIND NEUMANN LAT NEUMANN LON NEUMANN CLASS NEUMANN WIND NEUMANN PRES STORM SPEED STORM DIR
Year degrees north degrees east kts mb km km degrees north degrees east kts 1 degrees north degrees east kts mb 1 mb degrees north degrees east kts degrees north degrees east kts mb kts degrees
1982 SP EA 1981-11-30 23:00:00 NR -16.00 139.00 25 1004 bom 99 99 ______O_______ -1 -16.00 139.00 20 25 1004 1.50 11 321
1982 SP EA 1981-12-01 00:00:00 TS -15.86 138.88 105 105 ______P_____O_ -1 -15.78 138.81 20 25 1003 -16.00 139.00 TC 20 1004 13 323
1982 SP EA 02:00:00 TS -15.49 138.60 25 1003 bom 124 123 ______O_____P_ -1 -15.40 138.50 20 25 1003 1.50 -15.63 138.76 TC 21 1003 13 325
1982 SP EA 03:00:00 TS -15.34 138.50 132 125 ______P_____P_ -1 -15.25 138.40 20 25 1002 -15.46 138.63 TC 22 1003 11 324
1982 SP EA 05:00:00 TS -15.07 138.28 25 1002 bom 138 138 ______O_____P_ -1 -15.00 138.20 20 25 1002 1.50 -15.14 138.35 TC 24 1002 11 319
1982 SP EA 06:00:00 TS -14.93 138.13 136 97 ______P_____O_ -1 -14.85 138.05 20 25 1001 -15.00 138.20 TC 25 1002 12 308
1982 SP EA 08:00:00 TS -14.69 137.78 25 1000 bom 97 72 ______O_____P_ -1 -14.60 137.70 20 25 1000 1.50 -14.78 137.86 TC 25 1002 12 301
1982 SP EA 09:00:00 TS -14.62 137.59 72 31 ______P_____P_ -1 -14.54 137.51 20 25 1000 -14.69 137.67 TC 25 1002 12 286
1982 SP EA 11:00:00 TS -14.53 137.20 25 1002 bom 31 22 ______O_____P_ -1 -14.50 137.10 20 25 1002 1.50 -14.55 137.29 TC 25 1002 12 282
1982 SP EA 12:00:00 TS -14.49 136.99 22 11 ______P_____O_ -1 -14.48 136.88 20 25 1002 -14.50 137.10 TC 25 1002 12 279
1982 SP EA 15:00:00 TS -14.40 136.37 22 22 ______P_____P_ -1 -14.41 136.27 20 25 1002 -14.39 136.48 TC 25 1002 11 281
1982 SP EA 17:00:00 TS -14.32 136.06 25 1002 bom 24 15 ______O_____P_ -1 -14.30 136.00 20 25 1002 1.50 -14.33 136.13 TC 25 1002 8 290
1982 SP EA 18:00:00 TS -14.26 135.97 15 0 ______P_____O_ -1 -14.21 135.94 20 25 1002 -14.30 136.00 TC 25 1002 5 322
1982 SP EA 20:00:00 TS -14.10 135.89 25 1002 bom 0 0 ______O_____P_ -1 -14.00 135.90 20 25 1002 1.50 -14.21 135.89 TC 26 1002 5 339
1982 SP EA 21:00:00 TS -14.03 135.88 0 0 ______P_____P_ -1 -13.91 135.88 20 25 1002 -14.16 135.88 TC 27 1002 5 351
1982 SP EA 23:00:00 TS -13.88 135.85 25 1002 bom 0 0 ______O_____P_ -1 -13.70 135.80 20 25 1002 1.50 -14.05 135.89 TC 29 1002 6 345
1982 SP EA 1981-12-02 00:00:00 TS -13.77 135.81 0 0 ______P_____O_ -1 -13.54 135.71 20 25 1002 -14.00 135.90 TC 30 1002 7 335
1982 SP EA 02:00:00 TS -13.56 135.69 25 1002 bom 0 0 ______O_____P_ -1 -13.20 135.50 20 25 1002 1.50 -13.93 135.89 TC 30 1002 6 332
1982 SP EA 03:00:00 TS -13.49 135.65 0 0 ______P_____P_ -1 -13.09 135.41 20 25 1001 -13.89 135.88 TC 30 1002 5 332
1982 SP EA 05:00:00 TS -13.34 135.57 25 1000 bom 0 0 ______O_____P_ -1 -12.90 135.30 20 25 1000 1.50 -13.78 135.84 TC 30 1002 5 341
1982 SP EA 06:00:00 TS -13.24 135.56 0 0 ______P_____O_ -1 -12.78 135.31 20 25 1000 -13.70 135.80 TC 30 1002 7 346
1982 SP EA 08:00:00 TS -12.99 135.48 25 1000 bom 0 0 ______O_____P_ -1 -12.50 135.30 20 25 1000 1.50 -13.48 135.66 TC 30 1001 9 337
1982 SP EA 09:00:00 TS -12.84 135.38 0 0 ______P_____P_ -1 -12.33 135.18 20 25 1000 -13.35 135.58 TC 30 1001 12 321
1982 SP EA 11:00:00 TS -12.53 135.10 25 1000 bom 0 0 ______O_____P_ -1 -12.00 134.80 20 25 1000 1.50 -13.05 135.39 TC 30 1000 12 317
1982 SI WA 12:00:00 TS -12.39 134.95 0 0 ______P_____O_ -1 -11.88 134.59 20 25 1000 -12.90 135.30 TC 30 1000 11 310
1982 SI WA 15:00:00 TS -12.05 134.52 11 11 ______P_____P_ -1 -11.67 133.93 20 25 1000 -12.42 135.10 TC 30 1000 10 308
1982 SI WA 17:00:00 TS -11.86 134.26 25 1000 bom 15 15 ______O_____P_ -1 -11.60 133.60 20 25 1000 1.50 -12.12 134.92 TC 30 1000 9 307
1982 SI WA 18:00:00 TS -11.79 134.17 22 15 ______P_____O_ -1 -11.57 133.54 20 25 1000 -12.00 134.80 TC 30 1000 8 300
1982 SI WA 20:00:00 TS -11.66 133.90 25 1000 bom 15 15 ______O_____P_ -1 -11.50 133.40 20 25 1000 1.50 -11.81 134.40 TC 30 1000 10 296
1982 SI WA 21:00:00 TS -11.57 133.70 22 22 ______P_____P_ -1 -11.39 133.22 20 25 999 -11.74 134.18 TC 30 1000 13 291
1982 SI WA 23:00:00 TS -11.42 133.28 25 999 bom 31 15 ______O_____P_ -1 -11.20 132.80 20 25 999 1.50 -11.64 133.76 TC 30 1000 12 287
1982 SI WA 1981-12-03 00:00:00 TS -11.40 133.12 15 0 ______P_____O_ -1 -11.20 132.64 20 25 999 -11.60 133.60 TC 30 1000 7 269
1982 SI WA 02:00:00 TS -11.43 132.94 25 1000 bom 0 0 ______O_____P_ -1 -11.30 132.40 20 25 1000 1.50 -11.55 133.42 TC 30 1000 5 258
1982 SI WA 03:00:00 TS -11.45 132.89 0 0 ______P_____P_ -1 -11.35 132.32 20 25 1000 -11.53 133.38 TC 30 1000 4 248
1982 SI WA 05:00:00 TS -11.51 132.73 25 1000 bom 0 0 ______O_____P_ -1 -11.50 132.20 20 25 1000 1.50 -11.51 133.38 TC 30 1000 6 248
1982 SI WA 06:00:00 TS -11.56 132.58 0 0 ______P_____O_ -1 -11.60 132.18 20 25 1000 -11.50 133.40 TC 30 1000 10 246
1982 SI WA 08:00:00 TS -11.72 132.24 25 1000 bom 22 22 ______O_______ -1 -11.80 132.00 20 25 1000 1.50 TC 18 250
1982 SI WA 09:00:00 NR -11.88 131.71 40 11 ______P_______ -1 -11.88 131.71 20 25 1000 TC 25 257
1982 SI WA 11:00:00 NR -12.00 131.00 25 1000 bom 11 11 ______O_______ -1 -12.00 131.00 20 25 1000 1.50 TC 18 260
1982 SI WA 12:00:00 NR -12.04 130.79 22 22 ______P_______ -1 -12.04 130.79 20 25 1000 8 268
1982 SI WA 15:00:00 NR -12.02 130.45 22 11 ______P_______ -1 -12.02 130.45 20 25 1000 7 283
1982 SI WA 17:00:00 NR -11.90 130.20 25 1000 bom 11 0 ______O_______ -1 -11.90 130.20 20 25 1000 2.00 10 294
1982 SI WA 18:00:00 NR -11.81 129.99 10 10 ______P_______ -1 -11.81 129.99 20 25 999 15 294
1982 SI WA 20:00:00 NR -11.60 129.50 25 999 bom 66 66 ______O_______ -1 -11.60 129.50 20 25 999 2.50 17 293
1982 SI WA 21:00:00 NR -11.48 129.21 98 98 ______P_______ -1 -11.48 129.21 20 26 998 17 291
1982 SI WA 23:00:00 NR -11.30 128.70 30 998 bom 154 154 ______O_______ -1 -11.30 128.70 20 30 998 2.50 1006 14 288
1982 SI WA 1981-12-04 00:00:00 NR -11.28 128.56 165 165 ______P_______ -1 -11.28 128.56 20 30 998 6 270
1982 SI WA 02:00:00 NR -11.30 128.40 30 998 bom 186 186 ______O_______ -1 -11.30 128.40 20 30 998 2.50 4 265
1982 SI WA 03:00:00 NR -11.29 128.33 197 197 ______P_______ -1 -11.29 128.33 20 30 997 4 270
1982 SI WA 05:00:00 NR -11.30 128.20 30 996 bom 208 208 ______O_______ -1 -11.30 128.20 20 30 996 2.50 4 262
1982 SI WA 06:00:00 NR -11.33 128.11 219 219 ______P_______ -1 -11.33 128.11 20 30 996 6 251
1982 SI WA 08:00:00 NR -11.40 127.90 30 996 bom 240 240 ______O_______ -1 -11.40 127.90 20 30 996 2.50 7 253
1982 SI WA 09:00:00 NR -11.43 127.77 251 251 ______P_______ -1 -11.43 127.77 20 30 996 8 256
1982 SI WA 11:00:00 NR -11.50 127.50 30 996 bom 261 259 ______O_______ -1 -11.50 127.50 20 30 996 2.50 8 253
1982 SI WA 12:00:00 NR -11.55 127.38 259 235 ______P_______ -1 -11.55 127.38 20 30 996 7 240
1982 SI WA 15:00:00 NR -11.73 127.09 235 212 ______P_______ -1 -11.73 127.09 20 30 996 7 233
1982 SI WA 17:00:00 NR -11.90 126.90 30 996 bom 212 201 ______O_______ -1 -11.90 126.90 20 30 996 2.50 8 226
1982 SI WA 18:00:00 NR -12.01 126.80 201 182 ______P_______ -1 -12.01 126.80 20 31 996 8 224
1982 SI WA 20:00:00 NR -12.20 126.60 35 996 bom 182 182 ______O_______ -1 -12.20 126.60 30 35 996 3.00 7 231
1982 SI WA 21:00:00 NR -12.24 126.51 184 173 ______P_______ -1 -12.24 126.51 30 35 996 6 251
1982 SI WA 23:00:00 NR -12.30 126.30 35 997 bom 180 180 ______O_______ -1 -12.30 126.30 30 35 997 3.00 1006 14 273
1982 SI WA 1981-12-05 00:00:00 NR -12.21 125.78 204 169 O_____P___O___ jtwc_sh SH041982 -11.90 125.00 45 0 -12.36 126.17 30 35 997 -11.90 125.00 2 9 243
1982 SI WA 02:00:00 NR -12.50 125.90 35 998 bom 169 169 P_____O___P___ SH041982 -11.97 124.81 -1 -12.50 125.90 30 35 998 3.00 -11.96 124.80 2 6 172
1982 SI WA 03:00:00 NR -12.53 125.81 171 162 P_____P___P___ SH041982 -12.01 124.72 -1 -12.53 125.81 30 35 998 -11.99 124.69 2 6 251
1982 SI WA 05:00:00 NR -12.60 125.60 35 998 bom 165 159 P_____O___P___ SH041982 -12.08 124.52 -1 -12.60 125.60 30 35 998 3.00 -12.06 124.48 2 8 248
1982 SI WA 06:00:00 NR -12.68 125.42 164 159 P_____P___P___ SH041982 -12.13 124.43 -1 -12.68 125.42 30 33 998 -12.10 124.38 2 13 243
1982 SI WA 08:00:00 NR -12.90 125.00 30 998 bom 169 164 P_____O___P___ SH041982 -12.22 124.22 -1 -12.90 125.00 20 30 998 2.50 -12.19 124.17 2 13 241
1982 SI WA 09:00:00 NR -13.00 124.82 169 163 P_____P___P___ SH041982 -12.28 124.12 -1 -13.00 124.82 20 30 998 -12.25 124.06 2 11 238
1982 SI WA 11:00:00 NR -13.20 124.50 30 1000 bom 171 169 P_____O___P___ SH041982 -12.40 123.90 -1 -13.20 124.50 20 30 1000 2.50 -12.37 123.83 2 11 239
1982 SI WA 12:00:00 NR -13.30 124.32 175 172 P_____P___P___ SH041982 -12.47 123.79 -1 -13.30 124.32 20 30 1000 -12.44 123.72 2 12 242
1982 SI WA 15:00:00 NR -13.56 123.80 188 188 P_____P___P___ SH041982 -12.73 123.43 -1 -13.56 123.80 20 30 1001 -12.69 123.36 2 11 243
1982 SI WA 17:00:00 NR -13.70 123.50 30 1002 bom 209 209 P_____O___P___ SH041982 -12.94 123.17 -1 -13.70 123.50 20 30 1002 2.50 -12.90 123.11 2 8 245
1982 SI WA 18:00:00 NR -13.74 123.41 218 218 P_____P___P___ SH041982 -13.06 123.04 -1 -13.74 123.41 20 30 1002 -13.02 122.97 2 9 271
1982 SI WA 21:00:00 NR -13.69 122.85 264 264 P_____P___P___ SH041982 -13.48 122.60 -1 -13.83 123.19 20 30 1002 -13.46 122.56 2 10 263
1982 SI WA 23:00:00 NR -13.85 122.53 30 1003 bom 287 279 P_____O___P___ SH041982 -13.81 122.27 -1 -13.90 122.90 20 30 1003 2.50 -13.81 122.26 2 12 240
1982 SI WA 1981-12-06 00:00:00 NR -13.99 122.32 287 264 O_____P___O___ jtwc_sh SH041982 -14.00 122.10 -1 -13.97 122.65 20 30 1003 -14.00 122.10 2 16 231
1982 SI WA 02:00:00 NR -14.34 121.91 30 1003 bom 268 253 P_____O___P___ SH041982 -14.41 121.74 -1 -14.10 122.10 20 30 1003 2.50 -14.43 121.77 2 16 226
1982 SI WA 03:00:00 NR -14.55 121.71 248 232 P_____P___P___ SH041982 -14.63 121.55 -1 -14.14 121.87 20 28 1003 -14.66 121.60 2 18 220
1982 SI WA 05:00:00 NR -15.01 121.32 25 1003 bom 239 231 P_____O___P___ SH041982 -15.08 121.18 -1 -14.20 121.50 20 25 1003 2.50 -15.13 121.25 2 20 217
1982 SI WA 06:00:00 NR -15.34 121.11 231 216 O_________P___ jtwc_sh SH041982 -15.30 121.00 -1 20 -15.36 121.08 2 19 216
1982 SI WA 09:00:00 NR -16.02 120.55 219 219 P_________P___ SH041982 -15.99 120.49 -1 -16.04 120.54 2 17 220
1982 SI WA 12:00:00 NR -16.60 120.00 246 246 O_________O___ jtwc_sh SH041982 -16.60 120.00 -1 -16.60 120.00 2 45 14 226
1982 SI WA 15:00:00 NR -17.01 119.47 284 284 P_________P___ SH041982 -17.03 119.50 -1 -16.99 119.48 2 42 12 236
1982 SI WA 18:00:00 NR -17.27 118.97 313 304 O_________P___ jtwc_sh SH041982 -17.30 119.00 -1 -17.24 118.98 2 40 10 247
1982 SI WA 21:00:00 NR -17.41 118.48 308 302 P_________P___ SH041982 -17.44 118.50 -1 -17.40 118.49 2 37 10 256
1982 SI WA 1981-12-07 00:00:00 NR -17.50 118.00 313 O_________O___ jtwc_sh SH041982 -17.50 118.00 -1 -17.50 118.00 2 35 9 259